createdAt,value
2018-07-14T00:02:11.810Z,4.80
2018-07-14T00:04:40.010Z,5.40
2018-07-14T00:07:08.170Z,6.17
2018-07-14T00:09:36.242Z,5.13
2018-07-14T00:12:04.436Z,5.27
2018-07-14T00:14:32.486Z,4.90
2018-07-14T00:17:00.600Z,6.53
2018-07-14T00:19:28.630Z,5.03
2018-07-14T00:21:56.742Z,5.63
2018-07-14T00:24:24.877Z,5.13
2018-07-14T00:26:52.890Z,6.00
2018-07-14T00:29:20.922Z,5.83
2018-07-14T00:31:49.048Z,5.47
2018-07-14T00:34:17.194Z,7.30
2018-07-14T00:36:45.514Z,5.40
2018-07-14T00:39:13.575Z,6.10
2018-07-14T00:41:41.636Z,5.17
2018-07-14T00:44:09.746Z,5.87
2018-07-14T00:46:37.818Z,6.57
2018-07-14T00:49:06.130Z,6.30
2018-07-14T00:51:34.411Z,4.97
2018-07-14T00:54:02.484Z,7.53
2018-07-14T00:56:30.590Z,6.13
2018-07-14T00:58:58.640Z,5.37
2018-07-14T01:01:26.752Z,7.10
2018-07-14T01:03:54.813Z,5.30
2018-07-14T01:06:23.064Z,6.60
2018-07-14T01:08:51.129Z,8.70
2018-07-14T01:11:19.219Z,6.20
2018-07-14T01:13:47.263Z,6.30
2018-07-14T01:16:15.304Z,6.07
2018-07-14T01:18:43.383Z,6.30
2018-07-14T01:21:11.499Z,5.50
2018-07-14T01:23:39.577Z,6.57
2018-07-14T01:26:08.047Z,6.73
2018-07-14T01:28:36.163Z,6.57
2018-07-14T01:31:04.276Z,6.20
2018-07-14T01:33:32.413Z,6.80
2018-07-14T01:36:00.485Z,7.57
2018-07-14T01:38:28.578Z,5.93
2018-07-14T01:40:56.689Z,6.47
2018-07-14T01:43:24.778Z,6.13
2018-07-14T01:45:52.820Z,6.97
2018-07-14T01:48:20.876Z,7.43
2018-07-14T01:50:48.962Z,6.50
2018-07-14T01:53:17.030Z,6.60
2018-07-14T01:55:45.077Z,7.13
2018-07-14T01:58:13.191Z,5.50
2018-07-14T02:00:41.234Z,4.63
2018-07-14T02:03:09.265Z,6.50
2018-07-14T02:05:37.483Z,5.73
2018-07-14T02:08:05.636Z,5.40
2018-07-14T02:10:33.720Z,5.67
2018-07-14T02:13:01.857Z,7.90
2018-07-14T02:15:29.912Z,7.20
2018-07-14T02:17:57.974Z,5.73
2018-07-14T02:20:26.084Z,6.90
2018-07-14T02:22:54.258Z,6.77
2018-07-14T02:25:22.456Z,6.53
2018-07-14T02:27:50.627Z,7.70
2018-07-14T02:30:18.875Z,6.93
2018-07-14T02:32:46.953Z,9.37
2018-07-14T02:35:15.117Z,6.70
2018-07-14T02:37:43.507Z,6.77
2018-07-14T02:40:11.655Z,5.97
2018-07-14T02:42:40.028Z,6.63
2018-07-14T02:45:08.183Z,6.10
2018-07-14T02:47:36.233Z,6.33
2018-07-14T02:50:04.367Z,8.63
2018-07-14T02:52:32.457Z,6.67
2018-07-14T02:55:00.535Z,8.53
2018-07-14T02:57:28.670Z,6.07
2018-07-14T02:59:56.740Z,6.27
2018-07-14T03:02:25.024Z,7.37
2018-07-14T03:04:53.105Z,6.37
2018-07-14T03:07:21.266Z,6.73
2018-07-14T03:09:49.569Z,9.43
2018-07-14T03:12:17.817Z,7.80
2018-07-14T03:14:45.851Z,6.03
2018-07-14T03:17:13.927Z,5.60
2018-07-14T03:19:42.162Z,5.17
2018-07-14T03:22:10.301Z,9.20
2018-07-14T03:24:38.397Z,8.67
2018-07-14T03:27:06.536Z,8.70
2018-07-14T03:29:34.613Z,8.90
2018-07-14T03:32:02.923Z,6.77
2018-07-14T03:34:31.126Z,8.20
2018-07-14T03:36:59.228Z,8.20
2018-07-14T03:39:27.386Z,13.03
2018-07-14T03:41:55.520Z,9.90
2018-07-14T03:44:23.643Z,9.37
2018-07-14T03:46:51.715Z,9.23
2018-07-14T03:49:19.849Z,6.97
2018-07-14T03:51:47.885Z,5.90
2018-07-14T03:54:15.960Z,8.97
2018-07-14T03:56:44.089Z,8.43
2018-07-14T03:59:12.114Z,5.77
2018-07-14T04:01:40.215Z,7.70
2018-07-14T04:04:08.305Z,8.27
2018-07-14T04:06:36.445Z,6.97
2018-07-14T04:09:05.222Z,8.30
2018-07-14T04:11:33.297Z,8.43
2018-07-14T04:14:01.346Z,7.43
2018-07-14T04:16:29.439Z,6.90
2018-07-14T04:18:57.489Z,5.30
2018-07-14T04:21:26.665Z,7.87
2018-07-14T04:23:54.751Z,6.13
2018-07-14T04:26:22.851Z,7.30
2018-07-14T04:28:51.148Z,9.57
2018-07-14T04:31:19.245Z,7.50
2018-07-14T04:33:47.309Z,10.93
2018-07-14T04:36:15.412Z,10.93
2018-07-14T04:38:43.517Z,8.30
2018-07-14T04:41:11.652Z,8.70
2018-07-14T04:43:39.702Z,7.03
2018-07-14T04:46:08.646Z,6.73
2018-07-14T04:48:36.678Z,9.17
2018-07-14T04:51:04.792Z,8.53
2018-07-14T04:53:32.881Z,8.43
2018-07-14T04:56:01.616Z,10.33
2018-07-14T04:58:29.734Z,11.93
2018-07-14T05:00:57.893Z,10.33
2018-07-14T05:03:25.981Z,7.93
2018-07-14T05:05:54.137Z,7.63
2018-07-14T05:08:22.230Z,13.10
2018-07-14T05:10:50.336Z,8.03
2018-07-14T05:13:18.379Z,6.90
2018-07-14T05:15:46.567Z,13.27
2018-07-14T05:18:15.698Z,10.17
2018-07-14T05:20:43.920Z,9.17
2018-07-14T05:23:12.229Z,10.57
2018-07-14T05:25:40.289Z,10.03
2018-07-14T05:28:08.688Z,10.63
2018-07-14T05:30:36.773Z,11.73
2018-07-14T05:33:04.836Z,11.10
2018-07-14T05:35:33.001Z,11.23
2018-07-14T05:38:01.129Z,11.03
2018-07-14T05:40:29.339Z,8.70
2018-07-14T05:42:57.411Z,8.40
2018-07-14T05:45:25.535Z,10.80
2018-07-14T05:47:53.571Z,11.83
2018-07-14T05:50:21.669Z,9.77
2018-07-14T05:52:49.752Z,10.50
2018-07-14T05:55:17.797Z,10.63
2018-07-14T05:57:45.854Z,11.93
2018-07-14T06:00:14.361Z,10.93
2018-07-14T06:02:42.453Z,12.40
2018-07-14T06:05:10.655Z,13.03
2018-07-14T06:07:38.788Z,12.77
2018-07-14T06:10:06.909Z,11.20
2018-07-14T06:12:34.973Z,11.70
2018-07-14T06:15:03.239Z,12.53
2018-07-14T06:17:31.342Z,13.10
2018-07-14T06:19:59.393Z,12.57
2018-07-14T06:22:27.610Z,11.57
2018-07-14T06:24:55.659Z,10.50
2018-07-14T06:27:23.786Z,13.63
2018-07-14T06:29:51.877Z,11.37
2018-07-14T06:32:19.917Z,12.53
2018-07-14T06:34:48.016Z,11.63
2018-07-14T06:37:16.127Z,9.93
2018-07-14T06:39:44.253Z,12.97
2018-07-14T06:42:12.415Z,10.57
2018-07-14T06:44:40.555Z,13.00
2018-07-14T06:47:08.666Z,13.00
2018-07-14T06:49:36.962Z,11.53
2018-07-14T06:52:05.111Z,13.60
2018-07-14T06:54:33.308Z,11.60
2018-07-14T06:57:01.590Z,12.53
2018-07-14T06:59:29.705Z,11.93
2018-07-14T07:01:57.878Z,10.50
2018-07-14T07:04:25.927Z,14.43
2018-07-14T07:06:53.989Z,12.93
2018-07-14T07:09:22.045Z,12.10
2018-07-14T07:11:50.320Z,12.47
2018-07-14T07:14:18.424Z,13.30
2018-07-14T07:16:46.463Z,13.67
2018-07-14T07:19:14.517Z,14.47
2018-07-14T07:21:42.618Z,12.67
2018-07-14T07:24:10.690Z,12.87
2018-07-14T07:26:38.885Z,14.30
2018-07-14T07:29:06.955Z,14.30
2018-07-14T07:31:35.088Z,13.23
2018-07-14T07:34:03.801Z,15.10
2018-07-14T07:36:31.980Z,13.87
2018-07-14T07:39:00.164Z,14.63
2018-07-14T07:41:28.422Z,13.77
2018-07-14T07:43:56.547Z,15.63
2018-07-14T07:46:24.835Z,14.33
2018-07-14T07:48:52.917Z,16.60
2018-07-14T07:51:21.003Z,15.63
2018-07-14T07:53:49.319Z,15.60
2018-07-14T07:56:17.413Z,12.60
2018-07-14T07:58:45.473Z,13.70
2018-07-14T08:01:13.677Z,14.27
2018-07-14T08:03:41.737Z,14.73
2018-07-14T08:06:09.807Z,14.50
2018-07-14T08:08:38.165Z,13.83
2018-07-14T08:11:06.321Z,12.30
2018-07-14T08:13:34.365Z,11.77
2018-07-14T08:16:02.510Z,13.93
2018-07-14T08:18:30.579Z,17.13
2018-07-14T08:20:58.674Z,11.73
2018-07-14T08:23:26.778Z,14.27
2018-07-14T08:25:54.850Z,14.60
2018-07-14T08:28:23.602Z,13.23
2018-07-14T08:30:51.779Z,12.30
2018-07-14T08:33:20.710Z,13.67
2018-07-14T08:35:48.787Z,14.87
2018-07-14T08:38:16.877Z,13.23
2018-07-14T08:40:44.943Z,13.07
2018-07-14T08:43:13.173Z,15.03
2018-07-14T08:45:41.310Z,13.50
2018-07-14T08:48:09.394Z,14.30
2018-07-14T08:50:37.571Z,16.60
2018-07-14T08:53:05.552Z,13.13
2018-07-14T08:55:33.691Z,14.20
2018-07-14T08:58:01.793Z,14.33
2018-07-14T09:00:29.806Z,12.23
2018-07-14T09:02:57.864Z,13.83
2018-07-14T09:05:25.908Z,11.77
2018-07-14T09:07:53.957Z,12.50
2018-07-14T09:10:22.086Z,12.20
2018-07-14T09:12:50.180Z,13.10
2018-07-14T09:15:18.266Z,11.83
2018-07-14T09:17:46.314Z,11.67
2018-07-14T09:20:14.500Z,15.07
2018-07-14T09:22:42.762Z,12.97
2018-07-14T09:25:10.854Z,15.27
2018-07-14T09:27:39.296Z,12.47
2018-07-14T09:30:07.413Z,10.83
2018-07-14T09:32:35.526Z,10.13
2018-07-14T09:35:03.761Z,10.90
2018-07-14T09:37:31.893Z,10.17
2018-07-14T09:40:00.077Z,12.00
2018-07-14T09:42:28.320Z,10.77
2018-07-14T09:44:56.439Z,10.20
2018-07-14T09:47:24.553Z,9.28
2018-07-14T09:49:52.748Z,8.47
2018-07-14T09:52:20.862Z,9.13
2018-07-14T09:54:49.007Z,9.33
2018-07-14T09:57:17.106Z,7.78
2018-07-14T09:59:45.280Z,8.50
2018-07-14T10:02:13.561Z,12.27
2018-07-14T10:04:41.729Z,9.97
2018-07-14T10:07:09.837Z,7.37
2018-07-14T10:09:38.254Z,7.90
2018-07-14T10:12:06.455Z,6.70
2018-07-14T10:14:34.553Z,6.43
2018-07-14T10:17:02.701Z,8.17
2018-07-14T10:19:30.846Z,7.55
2018-07-14T10:21:59.040Z,7.22
2018-07-14T10:24:27.250Z,6.97
2018-07-14T10:26:55.434Z,6.62
2018-07-14T10:29:23.522Z,6.53
2018-07-14T10:31:51.668Z,8.18
2018-07-14T10:34:20.232Z,6.58
2018-07-14T10:36:48.280Z,6.67
2018-07-14T10:39:16.502Z,6.33
2018-07-14T10:41:44.700Z,5.90
2018-07-14T10:44:12.798Z,6.22
2018-07-14T10:46:41.013Z,7.58
2018-07-14T10:49:09.640Z,7.25
2018-07-14T10:51:37.813Z,6.00
2018-07-14T10:54:05.907Z,6.22
2018-07-14T10:56:34.238Z,7.83
2018-07-14T10:59:02.386Z,4.92
2018-07-14T11:01:31.318Z,5.58
2018-07-14T11:03:59.669Z,5.62
2018-07-14T11:06:27.929Z,5.20
2018-07-14T11:08:55.994Z,6.87
2018-07-14T11:11:24.238Z,5.67
2018-07-14T11:13:52.944Z,6.92
2018-07-14T11:16:21.045Z,4.28
2018-07-14T11:18:49.242Z,4.50
2018-07-14T11:21:17.390Z,5.00
2018-07-14T11:23:46.088Z,5.65
2018-07-14T11:26:14.263Z,4.42
2018-07-14T11:28:42.350Z,7.72
2018-07-14T11:31:10.490Z,4.90
2018-07-14T11:33:38.553Z,4.70
2018-07-14T11:36:06.671Z,5.55
2018-07-14T11:38:35.538Z,5.60
2018-07-14T11:41:03.853Z,4.45
2018-07-14T11:43:32.050Z,4.53
2018-07-14T11:46:00.401Z,3.30
2018-07-14T11:48:28.434Z,4.35
2018-07-14T11:50:57.127Z,4.08
2018-07-14T11:53:25.380Z,5.45
2018-07-14T11:55:53.442Z,3.50
2018-07-14T11:58:21.592Z,3.50
2018-07-14T12:00:49.742Z,3.65
2018-07-14T12:03:17.822Z,4.47
2018-07-14T12:05:46.134Z,4.25
2018-07-14T12:08:14.258Z,4.42
2018-07-14T12:10:42.358Z,4.40
2018-07-14T12:13:10.498Z,3.87
2018-07-14T12:15:38.547Z,4.00
2018-07-14T12:18:06.696Z,4.22
2018-07-14T12:20:34.882Z,3.92
2018-07-14T12:23:02.983Z,5.00
2018-07-14T12:25:31.097Z,3.80
2018-07-14T12:27:59.189Z,3.98
2018-07-14T12:30:28.805Z,3.30
2018-07-14T12:32:57.569Z,3.83
2018-07-14T12:35:25.662Z,3.10
2018-07-14T12:37:53.777Z,3.42
2018-07-14T12:40:22.099Z,3.55
2018-07-14T12:42:50.182Z,3.08
2018-07-14T12:45:18.459Z,2.40
2018-07-14T12:47:46.571Z,2.52
2018-07-14T12:50:14.773Z,3.47
2018-07-14T12:52:42.923Z,3.55
2018-07-14T12:55:11.064Z,2.95
2018-07-14T12:57:39.137Z,2.70
2018-07-14T13:00:09.517Z,3.08
2018-07-14T13:02:37.917Z,2.87
2018-07-14T13:05:06.831Z,3.45
2018-07-14T13:07:34.949Z,2.60
2018-07-14T13:10:04.460Z,2.42
2018-07-14T13:12:32.537Z,3.30
2018-07-14T13:15:00.584Z,3.08
2018-07-14T13:17:28.673Z,2.60
2018-07-14T13:19:57.060Z,2.50
2018-07-14T13:22:26.405Z,3.22
2018-07-14T13:24:54.490Z,2.70
2018-07-14T13:27:27.729Z,3.08
2018-07-14T13:29:55.933Z,2.83
2018-07-14T13:32:23.982Z,3.12
2018-07-14T13:34:52.049Z,3.20
2018-07-14T13:37:20.309Z,3.30
2018-07-14T13:39:48.499Z,2.50
2018-07-14T13:42:16.630Z,3.15
2018-07-14T13:44:44.771Z,4.03
2018-07-14T13:47:12.808Z,3.67
2018-07-14T13:49:40.982Z,2.60
2018-07-14T13:52:09.415Z,5.40
2018-07-14T13:54:37.600Z,3.30
2018-07-14T13:57:06.200Z,3.15
2018-07-14T13:59:34.285Z,2.52
2018-07-14T14:02:02.595Z,2.87
2018-07-14T14:04:30.835Z,3.02
2018-07-14T14:06:59.705Z,3.00
2018-07-14T14:09:27.917Z,3.12
2018-07-14T14:11:55.956Z,3.00
2018-07-14T14:14:24.031Z,3.00
2018-07-14T14:16:52.105Z,3.10
2018-07-14T14:19:20.155Z,3.00
2018-07-14T14:21:48.233Z,2.50
2018-07-14T14:24:16.301Z,2.50
2018-07-14T14:26:44.353Z,3.58
2018-07-14T14:29:12.405Z,3.05
2018-07-14T14:31:40.477Z,3.22
2018-07-14T14:34:08.889Z,3.12
2018-07-14T14:36:36.985Z,2.70
2018-07-14T14:39:05.732Z,3.98
2018-07-14T14:41:34.471Z,3.37
2018-07-14T14:44:02.697Z,2.40
2018-07-14T14:46:30.756Z,2.87
2018-07-14T14:48:58.853Z,2.95
2018-07-14T14:51:26.941Z,2.30
2018-07-14T14:53:55.307Z,2.90
2018-07-14T14:56:23.614Z,2.40
2018-07-14T14:58:51.846Z,2.72
2018-07-14T15:01:19.974Z,2.60
2018-07-14T15:03:48.102Z,2.40
2018-07-14T15:06:16.364Z,2.75
2018-07-14T15:08:44.496Z,2.60
2018-07-14T15:11:12.556Z,2.20
2018-07-14T15:13:40.661Z,2.67
2018-07-14T15:16:08.912Z,3.00
2018-07-14T15:18:37.164Z,2.98
2018-07-14T15:21:05.341Z,2.27
2018-07-14T15:23:33.503Z,3.52
2018-07-14T15:26:01.610Z,2.65
2018-07-14T15:28:29.740Z,4.53
2018-07-14T15:30:57.849Z,3.20
2018-07-14T15:33:26.049Z,3.55
2018-07-14T15:35:54.058Z,3.65
2018-07-14T15:38:22.210Z,2.30
2018-07-14T15:40:50.576Z,3.42
2018-07-14T15:45:53.325Z,2.62
2018-07-14T15:48:21.375Z,2.75
2018-07-14T15:50:49.487Z,2.50
2018-07-14T15:53:17.769Z,2.67
2018-07-14T15:55:45.859Z,2.47
2018-07-14T15:58:13.921Z,2.12
2018-07-14T16:00:42.099Z,3.10
2018-07-14T16:03:10.154Z,2.62
2018-07-14T16:05:38.282Z,2.72
2018-07-14T16:08:06.440Z,2.17
2018-07-14T16:10:34.521Z,5.72
2018-07-14T16:13:02.664Z,2.33
2018-07-14T16:15:30.746Z,3.12
2018-07-14T16:17:58.810Z,2.20
2018-07-14T16:20:26.942Z,2.25
2018-07-14T16:22:55.035Z,2.15
2018-07-14T16:25:23.126Z,2.08
2018-07-14T16:27:51.336Z,9.18
2018-07-14T16:30:19.911Z,2.60
2018-07-14T16:32:48.206Z,15.72
2018-07-14T16:35:16.397Z,17.82
2018-07-14T16:37:44.374Z,6.08
2018-07-14T16:40:12.557Z,4.95
2018-07-14T16:42:40.597Z,6.42
2018-07-14T16:45:08.936Z,10.85
2018-07-14T16:47:37.078Z,4.12
2018-07-14T16:50:05.267Z,12.53
2018-07-14T16:52:33.476Z,11.35
2018-07-14T16:55:01.622Z,16.95
2018-07-14T16:57:29.724Z,4.95
2018-07-14T16:59:58.239Z,3.20
2018-07-14T17:02:26.280Z,2.20
2018-07-14T17:04:54.400Z,2.02
2018-07-14T17:07:22.473Z,2.25
2018-07-14T17:09:50.520Z,2.37
2018-07-14T17:12:18.633Z,2.15
2018-07-14T17:14:46.675Z,2.25
2018-07-14T17:17:14.756Z,2.00
2018-07-14T17:19:42.834Z,1.70
2018-07-14T17:22:11.176Z,4.03
2018-07-14T17:24:39.282Z,1.95
2018-07-14T17:27:07.860Z,1.80
2018-07-14T17:29:35.899Z,2.10
2018-07-14T17:32:04.019Z,1.70
2018-07-14T17:34:32.105Z,2.17
2018-07-14T17:37:00.272Z,2.30
2018-07-14T17:39:28.434Z,1.85
2018-07-14T17:41:56.472Z,1.90
2018-07-14T17:44:24.646Z,1.75
2018-07-14T17:46:52.720Z,1.92
2018-07-14T17:49:21.010Z,1.82
2018-07-14T17:51:49.144Z,1.80
2018-07-14T17:54:17.274Z,2.00
2018-07-14T17:56:46.670Z,1.80
2018-07-14T17:59:14.744Z,1.60
2018-07-14T18:01:43.432Z,3.15
2018-07-14T18:04:11.629Z,1.80
2018-07-14T18:06:42.489Z,1.62
2018-07-14T18:09:14.709Z,1.70
2018-07-14T18:11:45.141Z,1.85
2018-07-14T18:14:13.172Z,2.90
2018-07-14T18:16:42.154Z,3.25
2018-07-14T18:19:10.243Z,1.55
2018-07-14T18:21:38.316Z,1.90
2018-07-14T18:24:06.496Z,1.80
2018-07-14T18:26:34.529Z,2.90
2018-07-14T18:29:03.584Z,1.80
2018-07-14T18:31:34.701Z,1.80
2018-07-14T18:34:02.828Z,1.90
2018-07-14T18:36:30.981Z,1.80
2018-07-14T18:38:59.041Z,1.67
2018-07-14T18:41:27.083Z,2.20
2018-07-14T18:43:55.174Z,1.98
2018-07-14T18:46:26.111Z,1.80
2018-07-14T18:48:54.173Z,1.85
2018-07-14T18:51:22.243Z,2.00
2018-07-14T18:53:50.309Z,2.22
2018-07-14T18:56:18.499Z,1.65
2018-07-14T18:58:46.551Z,3.12
2018-07-14T19:01:14.971Z,1.57
2018-07-14T19:03:43.228Z,1.82
2018-07-14T19:06:11.446Z,1.57
2018-07-14T19:08:40.633Z,1.60
2018-07-14T19:11:08.661Z,1.82
2018-07-14T19:13:37.749Z,1.92
2018-07-14T19:16:05.840Z,1.90
2018-07-14T19:18:33.884Z,1.67
2018-07-14T19:21:02.026Z,1.77
2018-07-14T19:23:38.552Z,1.67
2018-07-14T19:26:06.792Z,2.72
2018-07-14T19:28:34.719Z,1.80
2018-07-14T19:31:02.813Z,1.98
2018-07-14T19:33:30.903Z,1.98
2018-07-14T19:36:02.200Z,1.82
2018-07-14T19:38:30.332Z,2.08
2018-07-14T19:40:58.468Z,2.12
2018-07-14T19:43:26.658Z,1.87
2018-07-14T19:45:54.792Z,1.77
2018-07-14T19:48:22.997Z,2.37
2018-07-14T19:50:51.074Z,1.90
2018-07-14T19:53:21.852Z,2.27
2018-07-14T19:55:53.354Z,6.20
2018-07-14T19:58:21.410Z,3.60
2018-07-14T20:00:49.492Z,2.37
2018-07-14T20:03:17.655Z,2.40
2018-07-14T20:05:45.730Z,2.67
2018-07-14T20:08:13.811Z,2.33
2018-07-14T20:10:41.979Z,2.60
2018-07-14T20:13:11.151Z,2.80
2018-07-14T20:15:39.372Z,3.23
2018-07-14T20:18:08.954Z,2.77
2018-07-14T20:20:37.023Z,2.33
2018-07-14T20:23:05.235Z,2.90
2018-07-14T20:25:33.665Z,3.00
2018-07-14T20:28:01.760Z,2.50
2018-07-14T20:30:30.043Z,2.93
2018-07-14T20:32:58.080Z,2.77
2018-07-14T20:35:26.466Z,2.80
2018-07-14T20:37:54.620Z,2.90
2018-07-14T20:40:22.746Z,2.47
2018-07-14T20:42:51.040Z,2.40
2018-07-14T20:45:19.228Z,6.37
2018-07-14T20:47:47.433Z,2.90
2018-07-14T20:50:15.629Z,2.77
2018-07-14T20:52:43.663Z,4.13
2018-07-14T20:55:11.775Z,3.20
2018-07-14T20:57:39.913Z,4.37
2018-07-14T21:00:08.619Z,3.30
2018-07-14T21:02:36.700Z,3.47
2018-07-14T21:05:04.837Z,2.93
2018-07-14T21:07:32.894Z,3.37
2018-07-14T21:10:00.991Z,3.07
2018-07-14T21:12:29.098Z,2.93
2018-07-14T21:14:57.156Z,4.17
2018-07-14T21:17:25.264Z,2.77
2018-07-14T21:19:53.332Z,2.50
2018-07-14T21:22:21.815Z,3.40
2018-07-14T21:24:49.956Z,3.07
2018-07-14T21:27:18.076Z,2.70
2018-07-14T21:29:46.198Z,3.00
2018-07-14T21:32:14.261Z,2.80
2018-07-14T21:34:42.416Z,4.87
2018-07-14T21:37:12.549Z,2.87
2018-07-14T21:39:40.706Z,2.77
2018-07-14T21:42:09.077Z,2.43
2018-07-14T21:44:37.131Z,4.23
2018-07-14T21:47:05.529Z,2.80
2018-07-14T21:49:33.574Z,2.60
2018-07-14T21:52:02.529Z,2.60
2018-07-14T21:54:30.623Z,2.83
2018-07-14T21:56:58.673Z,3.57
2018-07-14T21:59:26.705Z,2.90
2018-07-14T22:01:54.877Z,3.00
2018-07-14T22:04:23.245Z,3.13
2018-07-14T22:06:51.965Z,3.43
2018-07-14T22:09:20.144Z,3.53
2018-07-14T22:11:48.252Z,2.50
2018-07-14T22:14:16.352Z,2.40
2018-07-14T22:16:44.619Z,2.73
2018-07-14T22:19:12.677Z,3.60
2018-07-14T22:21:40.737Z,2.60
2018-07-14T22:24:09.845Z,2.83
2018-07-14T22:26:37.933Z,3.50
2018-07-14T22:29:06.073Z,2.80
2018-07-14T22:31:34.175Z,3.50
2018-07-14T22:34:02.234Z,3.10
2018-07-14T22:36:30.271Z,5.50
2018-07-14T22:38:58.357Z,2.83
2018-07-14T22:41:26.421Z,2.87
2018-07-14T22:43:54.500Z,3.83
2018-07-14T22:46:22.815Z,2.67
2018-07-14T22:48:50.861Z,2.80
2018-07-14T22:51:19.938Z,2.77
2018-07-14T22:53:48.018Z,3.57
2018-07-14T22:56:16.067Z,2.83
2018-07-14T22:58:44.163Z,3.60
2018-07-14T23:01:12.254Z,3.13
2018-07-14T23:03:40.354Z,3.10
2018-07-14T23:06:08.980Z,3.03
2018-07-14T23:08:37.072Z,3.00
2018-07-14T23:11:05.161Z,4.30
2018-07-14T23:13:33.237Z,3.17
2018-07-14T23:16:01.248Z,4.57
2018-07-14T23:18:29.379Z,3.77
2018-07-14T23:20:57.496Z,4.90
2018-07-14T23:23:25.565Z,3.30
2018-07-14T23:25:53.899Z,3.23
2018-07-14T23:28:22.077Z,3.47
2018-07-14T23:30:50.192Z,2.83
2018-07-14T23:33:18.255Z,3.17
2018-07-14T23:35:46.302Z,5.67
2018-07-14T23:38:14.373Z,3.87
2018-07-14T23:40:42.434Z,4.53
2018-07-14T23:43:10.493Z,5.30
2018-07-14T23:45:38.556Z,3.60
2018-07-14T23:48:06.601Z,3.30
2018-07-14T23:50:34.661Z,3.50
2018-07-14T23:53:02.774Z,3.83
2018-07-14T23:55:30.830Z,5.20
2018-07-14T23:57:58.873Z,3.60
